aviador You're here:

SCCI Decoded Metar

PUNTA ARENAS in CHILE
Report Time2018-02-20 03:00:00
UTC Time2018-02-20 03:54:52
Flight Rules vfr VFR
Wind330° at 07 kt
W.Decomp.*RWY 30: 6.7 kt HW 2.0 kt RCW
RWY 01: 4.2 kt HW 5.6 kt LCW
RWY 25: 2.7 kt HW 6.4 kt RCW
W.Rank330° ranks 11
Current wind is below 330° avg. (9.3)
Visibility9999 m
Phenomena:N/A
Clouds:Few 040 Hf
Broken 090 Hf
Expected CloudBase > 1,600 ft AGL from Temp-Dew spread
Ceiling9,000 ft
Temp10°C (ISA -5)
Dew Point06°C (76% RH)
AAT6.6°C
QNH0998 hPa
Density Alt190 ft
Elevation121 ft
Report Wrong Elevation
Raw Report
SCCI 200300Z 33007KT 9999 FEW040 BKN090 10/06 Q0998 NOSIG=

Extra information for SCCI:More info

Metar Taf Metar & Taf Last 4 Metars F.Rules Stats Wind Profile Meteogram Temp Stats Airport Information Weather charts Add Link Nearby VenuesMetar ALERT Operation Metar Decoded Social comments